Terminal Aerodrome Forecast
Issued by NWS Cleveland, OH

Home | Current Version | Previous Version | Graphics & Text | Print | Product List | Glossary Off
Versions: 1 2 3 4 5 6 7 8 9 10 11 12 13 14 15 16 17 18 19 20 21 22 23 24 25 26

569
FTUS41 KCLE 091722
TAFMFD
TAF
KMFD 091722Z 0918/1018 23012G18KT 6SM -SN BKN008 OVC012
      TEMPO 0918/0919 4SM -SN SCT008 OVC012
     FM091900 25012G18KT 4SM -SN OVC012
      TEMPO 0919/0923 2SM -SN OVC008
     FM100000 27012G18KT 6SM HZ OVC012
     FM101000 27012KT 4SM -SN OVC008
     FM101500 27010KT 4SM -SN OVC015=

USA.gov is the U.S. government's official web portal to all federal, state and local government web resources and services.